createdAt,value
2019-06-25T07:41:18.360Z,10.80
2019-06-25T07:42:18.367Z,10.60
2019-06-25T07:43:18.340Z,7.70
2019-06-25T07:44:18.341Z,13.40
2019-06-25T07:45:18.342Z,7.30
2019-06-25T07:46:18.373Z,8.10
2019-06-25T07:47:18.322Z,8.10
2019-06-25T07:48:18.313Z,5.60
2019-06-25T07:49:18.313Z,7.20
2019-06-25T07:50:18.303Z,6.20
2019-06-25T07:51:18.317Z,8.40
2019-06-25T07:52:18.306Z,7.40
2019-06-25T07:53:18.288Z,5.70
2019-06-25T07:54:18.295Z,8.60
2019-06-25T07:55:18.279Z,9.30
2019-06-25T07:56:18.270Z,10.50
2019-06-25T07:57:18.265Z,8.10
2019-06-25T07:58:18.263Z,4.80
2019-06-25T07:59:18.262Z,8.30
2019-06-25T08:00:18.291Z,6.80
2019-06-25T08:01:18.260Z,6.60
2019-06-25T08:02:18.259Z,6.90
2019-06-25T08:03:18.264Z,7.00
2019-06-25T08:04:25.212Z,12.40
2019-06-25T08:05:18.559Z,6.40
2019-06-25T08:06:18.217Z,7.40
2019-06-25T08:07:18.256Z,6.50
2019-06-25T08:08:18.520Z,6.40
2019-06-25T08:09:18.203Z,6.30
2019-06-25T08:10:18.200Z,6.80
2019-06-25T08:11:18.191Z,7.30
2019-06-25T08:12:18.187Z,7.60
2019-06-25T08:13:18.192Z,9.40
2019-06-25T08:14:18.175Z,6.60
2019-06-25T08:15:18.176Z,6.80
2019-06-25T08:16:18.164Z,6.60
2019-06-25T08:17:18.165Z,11.50
2019-06-25T08:18:18.230Z,9.50
2019-06-25T08:19:18.149Z,8.30
2019-06-25T08:20:18.148Z,6.00
2019-06-25T08:21:18.139Z,5.50
2019-06-25T08:22:18.145Z,9.10
2019-06-25T08:23:18.233Z,7.20
2019-06-25T08:24:18.141Z,7.30
2019-06-25T08:25:18.111Z,8.80
2019-06-25T08:26:18.117Z,6.20
2019-06-25T08:27:18.106Z,9.90
2019-06-25T08:28:18.093Z,6.10
2019-06-25T08:29:18.086Z,8.10
2019-06-25T08:30:18.091Z,5.60
2019-06-25T08:31:18.069Z,7.80
2019-06-25T08:32:18.064Z,7.40
2019-06-25T08:33:18.065Z,6.90
2019-06-25T08:34:18.050Z,6.30
2019-06-25T08:35:18.047Z,10.60
2019-06-25T08:36:18.036Z,7.80
2019-06-25T08:37:18.041Z,7.30
2019-06-25T08:38:18.033Z,8.40
2019-06-25T08:39:18.014Z,7.80
2019-06-25T08:40:20.055Z,5.70
2019-06-25T08:41:17.999Z,7.20
2019-06-25T08:42:17.994Z,6.70
2019-06-25T08:43:17.995Z,9.00
2019-06-25T08:44:17.986Z,8.00
2019-06-25T08:45:17.989Z,9.70
2019-06-25T08:46:17.983Z,11.60
2019-06-25T08:47:17.963Z,5.90
2019-06-25T08:48:17.957Z,8.20
2019-06-25T08:49:17.981Z,6.70
2019-06-25T08:50:17.947Z,9.30
2019-06-25T08:51:17.930Z,7.90
2019-06-25T08:52:17.926Z,6.40
2019-06-25T08:53:17.914Z,7.40
2019-06-25T08:54:17.903Z,10.70
2019-06-25T08:55:17.899Z,6.30
2019-06-25T08:56:17.893Z,6.80
2019-06-25T08:57:17.887Z,9.60
2019-06-25T08:58:17.878Z,7.00
2019-06-25T08:59:17.878Z,6.10
2019-06-25T09:00:17.871Z,7.90
2019-06-25T09:01:17.867Z,8.40
2019-06-25T09:02:17.865Z,14.10
2019-06-25T09:03:20.470Z,8.60
2019-06-25T09:04:17.848Z,6.90
2019-06-25T09:05:17.835Z,6.40
2019-06-25T09:06:17.822Z,7.00
2019-06-25T09:07:17.831Z,6.90
2019-06-25T09:08:17.810Z,8.50
2019-06-25T09:09:17.825Z,6.90
2019-06-25T09:10:17.799Z,6.30
2019-06-25T09:11:17.803Z,7.10
2019-06-25T09:12:17.814Z,7.20
2019-06-25T09:13:17.782Z,5.30
2019-06-25T09:14:17.777Z,7.70
2019-06-25T09:15:17.781Z,5.40
2019-06-25T09:16:17.779Z,5.30
2019-06-25T09:17:17.761Z,6.20
2019-06-25T09:18:17.765Z,6.90
2019-06-25T09:19:17.764Z,5.80
2019-06-25T09:20:17.995Z,5.80
2019-06-25T09:21:17.755Z,6.70
2019-06-25T09:22:17.736Z,5.40
2019-06-25T09:23:17.730Z,5.80
2019-06-25T09:24:17.745Z,7.40
2019-06-25T09:25:17.845Z,10.80
2019-06-25T09:26:21.551Z,8.50
2019-06-25T09:27:17.709Z,8.20
2019-06-25T09:28:17.701Z,6.60
2019-06-25T09:29:17.698Z,5.50
2019-06-25T09:30:17.696Z,5.40
2019-06-25T09:31:17.690Z,5.70
2019-06-25T09:32:17.688Z,7.10
2019-06-25T09:33:17.676Z,6.10
2019-06-25T09:34:17.678Z,7.40
2019-06-25T09:35:20.114Z,6.10
2019-06-25T09:36:17.665Z,11.30
2019-06-25T09:37:17.660Z,6.70
2019-06-25T09:38:17.666Z,7.10
2019-06-25T09:39:17.653Z,9.20
2019-06-25T09:40:17.665Z,8.20
2019-06-25T09:41:17.654Z,6.20
2019-06-25T09:42:17.658Z,5.70
2019-06-25T09:43:17.642Z,4.50
2019-06-25T09:44:17.646Z,5.40
2019-06-25T09:45:17.639Z,7.60
2019-06-25T09:46:17.637Z,5.10
2019-06-25T09:47:17.634Z,6.30
2019-06-25T09:48:17.631Z,6.00
2019-06-25T09:49:17.627Z,6.50
2019-06-25T09:50:17.625Z,4.90
2019-06-25T09:51:17.621Z,6.70
2019-06-25T09:52:17.628Z,5.70
2019-06-25T09:53:17.654Z,6.80
2019-06-25T09:54:17.615Z,6.70
2019-06-25T09:55:17.835Z,6.10
2019-06-25T09:56:17.640Z,6.30
2019-06-25T09:57:17.611Z,5.70
2019-06-25T09:58:17.609Z,6.70
2019-06-25T09:59:17.672Z,5.20
2019-06-25T10:00:17.604Z,6.30
2019-06-25T10:01:26.380Z,4.40
2019-06-25T10:02:17.613Z,5.10
2019-06-25T10:03:17.601Z,4.20
2019-06-25T10:04:17.617Z,4.50
2019-06-25T10:05:30.559Z,5.80
2019-06-25T10:06:17.597Z,5.50
2019-06-25T10:07:17.604Z,3.80
2019-06-25T10:08:17.607Z,5.40
2019-06-25T10:09:17.607Z,5.40
2019-06-25T10:10:17.600Z,5.00
2019-06-25T10:11:17.599Z,4.00
2019-06-25T10:12:17.599Z,6.40
2019-06-25T10:13:17.606Z,6.10
2019-06-25T10:14:17.608Z,5.30
2019-06-25T10:15:17.602Z,5.40
2019-06-25T10:16:17.605Z,6.10
2019-06-25T10:17:17.605Z,5.40
2019-06-25T10:18:17.611Z,4.50
2019-06-25T10:19:17.617Z,5.70
2019-06-25T10:20:17.606Z,8.10
2019-06-25T10:21:17.618Z,4.00
2019-06-25T10:22:17.621Z,7.30
2019-06-25T10:23:17.615Z,5.60
2019-06-25T10:24:17.619Z,4.20
2019-06-25T10:25:17.622Z,4.00
2019-06-25T10:26:17.627Z,4.10
2019-06-25T10:27:17.624Z,3.80
2019-06-25T10:28:29.136Z,4.90
2019-06-25T10:29:17.637Z,5.50
2019-06-25T10:30:17.633Z,4.70
2019-06-25T10:31:17.640Z,4.60
2019-06-25T10:32:17.657Z,4.00
2019-06-25T10:33:17.758Z,3.00
2019-06-25T10:34:17.660Z,4.60
2019-06-25T10:35:17.650Z,4.60
2019-06-25T10:36:17.656Z,5.30
2019-06-25T10:37:17.726Z,4.80
2019-06-25T10:38:17.689Z,4.30
2019-06-25T10:39:17.668Z,5.50
2019-06-25T10:40:17.681Z,3.80
2019-06-25T10:41:17.690Z,5.30
2019-06-25T10:42:17.678Z,4.20
2019-06-25T10:43:17.687Z,7.00
2019-06-25T10:44:17.687Z,4.10
2019-06-25T10:45:17.707Z,4.20
2019-06-25T10:46:17.698Z,3.00
2019-06-25T10:47:17.703Z,3.00
2019-06-25T10:48:21.973Z,3.00
2019-06-25T10:49:17.713Z,3.90
2019-06-25T10:50:17.718Z,4.10
2019-06-25T10:51:17.721Z,6.70
2019-06-25T10:52:17.729Z,4.90
2019-06-25T10:53:17.737Z,3.90
2019-06-25T10:54:17.744Z,4.00
2019-06-25T10:55:17.740Z,3.70
2019-06-25T10:56:17.766Z,3.70
2019-06-25T10:57:17.755Z,4.70
2019-06-25T10:58:17.765Z,3.90
2019-06-25T10:59:17.759Z,3.30
2019-06-25T11:00:17.768Z,6.50
2019-06-25T11:01:17.781Z,2.90
2019-06-25T11:02:17.789Z,4.00
2019-06-25T11:03:17.787Z,4.00
2019-06-25T11:04:17.787Z,3.30
2019-06-25T11:05:17.809Z,4.10
2019-06-25T11:06:17.810Z,3.90
2019-06-25T11:07:17.803Z,5.40
2019-06-25T11:08:17.808Z,3.70
2019-06-25T11:09:17.817Z,4.80
2019-06-25T11:10:17.821Z,6.40
2019-06-25T11:11:17.830Z,4.10
2019-06-25T11:12:17.834Z,3.70
2019-06-25T11:13:17.837Z,4.10
2019-06-25T11:14:17.840Z,4.50
2019-06-25T11:15:17.862Z,4.60
2019-06-25T11:16:17.860Z,3.60
2019-06-25T11:17:17.983Z,5.30
2019-06-25T11:18:17.877Z,4.40
2019-06-25T11:19:17.876Z,3.80
2019-06-25T11:20:17.875Z,3.80
2019-06-25T11:21:17.896Z,4.60
2019-06-25T11:22:17.889Z,5.50
2019-06-25T11:23:17.906Z,4.10
2019-06-25T11:24:17.896Z,3.20
2019-06-25T11:25:17.905Z,4.00
2019-06-25T11:26:23.286Z,3.30
2019-06-25T11:27:17.918Z,5.40
2019-06-25T11:28:17.927Z,5.50
2019-06-25T11:29:17.931Z,6.60
2019-06-25T11:30:17.941Z,4.50
2019-06-25T11:31:17.952Z,5.80
2019-06-25T11:32:17.956Z,5.40
2019-06-25T11:33:17.952Z,4.10
2019-06-25T11:34:17.964Z,3.80
2019-06-25T11:35:17.967Z,4.80
2019-06-25T11:36:21.674Z,3.70
2019-06-25T11:37:18.007Z,5.50
2019-06-25T11:38:17.995Z,3.80
2019-06-25T11:39:18.044Z,4.50
2019-06-25T11:40:18.001Z,3.20
2019-06-25T11:41:18.004Z,3.50
2019-06-25T11:42:18.020Z,5.40
2019-06-25T11:43:18.041Z,3.90
2019-06-25T11:44:18.024Z,4.20
2019-06-25T11:45:18.024Z,5.00
2019-06-25T11:46:19.785Z,3.00
2019-06-25T11:47:18.123Z,3.60
2019-06-25T11:48:18.038Z,3.30
2019-06-25T11:49:18.048Z,3.30
2019-06-25T11:50:18.053Z,3.80
2019-06-25T11:51:18.060Z,6.90
2019-06-25T11:52:18.053Z,3.60
2019-06-25T11:53:18.066Z,4.00
2019-06-25T11:54:18.055Z,5.10
2019-06-25T11:55:18.066Z,4.20
2019-06-25T11:56:18.059Z,4.70
2019-06-25T11:57:18.061Z,3.20
2019-06-25T11:58:18.062Z,3.40
2019-06-25T11:59:18.084Z,4.60
2019-06-25T12:00:18.064Z,4.50
2019-06-25T12:01:18.066Z,4.20
2019-06-25T12:02:18.065Z,4.10
2019-06-25T12:03:18.075Z,3.50
2019-06-25T12:04:18.056Z,5.00
2019-06-25T12:05:18.075Z,5.00
2019-06-25T12:06:32.671Z,3.60
2019-06-25T12:07:18.067Z,4.20
2019-06-25T12:08:18.080Z,4.90
2019-06-25T12:09:18.059Z,4.40
2019-06-25T12:10:18.055Z,6.00
2019-06-25T12:11:18.049Z,4.70
2019-06-25T12:12:18.040Z,6.20
2019-06-25T12:13:18.041Z,4.90
2019-06-25T12:14:18.044Z,4.30
2019-06-25T12:15:18.050Z,3.80
2019-06-25T12:16:18.030Z,3.70
2019-06-25T12:17:18.035Z,4.70
2019-06-25T12:18:18.030Z,6.20
2019-06-25T12:19:18.028Z,6.20
2019-06-25T12:20:18.075Z,5.80
2019-06-25T12:21:18.038Z,4.40
2019-06-25T12:22:18.009Z,6.00
2019-06-25T12:23:18.005Z,4.40
2019-06-25T12:24:18.000Z,5.50
2019-06-25T12:25:18.007Z,6.40
2019-06-25T12:26:17.999Z,5.00
2019-06-25T12:27:17.988Z,7.00
2019-06-25T12:28:17.992Z,7.10
2019-06-25T12:29:17.993Z,4.90
2019-06-25T12:30:17.982Z,5.20
2019-06-25T12:31:17.970Z,4.30
2019-06-25T12:32:17.964Z,6.20
2019-06-25T12:33:17.959Z,6.10
2019-06-25T12:34:17.956Z,7.80
2019-06-25T12:35:18.049Z,6.10
2019-06-25T12:36:17.960Z,5.30
2019-06-25T12:37:17.945Z,6.10
2019-06-25T12:38:17.939Z,3.90
2019-06-25T12:39:17.953Z,5.10
2019-06-25T12:40:20.319Z,5.60
2019-06-25T12:41:17.939Z,4.70
2019-06-25T12:42:17.920Z,8.20
2019-06-25T12:43:17.962Z,4.40
2019-06-25T12:44:17.907Z,5.30
2019-06-25T12:45:17.925Z,4.50
2019-06-25T12:46:17.899Z,3.70
2019-06-25T12:47:17.908Z,4.70
2019-06-25T12:48:17.887Z,4.00
2019-06-25T12:49:17.884Z,6.30
2019-06-25T12:50:17.876Z,4.10
2019-06-25T12:51:17.876Z,4.90
2019-06-25T12:52:17.875Z,5.30
2019-06-25T12:53:17.864Z,4.20
2019-06-25T12:54:17.874Z,6.10
2019-06-25T12:55:17.867Z,5.00
2019-06-25T12:56:17.845Z,6.10
2019-06-25T12:57:17.863Z,5.00
2019-06-25T12:58:17.834Z,4.70
2019-06-25T12:59:17.829Z,5.80
2019-06-25T13:00:17.828Z,4.50
2019-06-25T13:01:17.830Z,4.80
2019-06-25T13:02:17.811Z,3.80
2019-06-25T13:03:17.807Z,4.60
2019-06-25T13:04:17.818Z,4.60
2019-06-25T13:05:17.797Z,6.40
2019-06-25T13:06:17.795Z,4.30
2019-06-25T13:07:25.646Z,3.80
2019-06-25T13:08:17.786Z,7.90
2019-06-25T13:09:17.800Z,4.00
2019-06-25T13:10:17.768Z,3.60
2019-06-25T13:11:17.765Z,4.50
2019-06-25T13:12:17.770Z,5.20
2019-06-25T13:13:17.756Z,5.30
2019-06-25T13:14:17.761Z,4.00
2019-06-25T13:15:17.746Z,6.00
2019-06-25T13:16:17.745Z,4.50
2019-06-25T13:17:17.728Z,5.70
2019-06-25T13:18:18.619Z,4.60
2019-06-25T13:19:17.721Z,5.00
2019-06-25T13:20:17.748Z,6.10
2019-06-25T13:21:17.743Z,3.80
2019-06-25T13:22:17.712Z,5.70
2019-06-25T13:23:17.697Z,5.50
2019-06-25T13:24:17.696Z,4.50
2019-06-25T13:25:17.683Z,7.40
2019-06-25T13:26:17.677Z,3.60
2019-06-25T13:27:17.668Z,7.20
2019-06-25T13:28:17.672Z,5.00
2019-06-25T13:29:17.657Z,3.60
2019-06-25T13:30:17.662Z,3.70
2019-06-25T13:31:17.651Z,4.50
2019-06-25T13:32:17.810Z,5.20
2019-06-25T13:33:17.648Z,4.20
2019-06-25T13:34:17.651Z,6.30
2019-06-25T13:35:17.682Z,4.20
2019-06-25T13:36:17.626Z,4.20
2019-06-25T13:37:17.611Z,4.30
2019-06-25T13:38:17.603Z,5.10
2019-06-25T13:39:17.623Z,3.80
2019-06-25T13:40:17.609Z,4.40
2019-06-25T13:41:17.597Z,5.10
2019-06-25T13:42:17.580Z,3.60
2019-06-25T13:43:17.575Z,3.90
2019-06-25T13:44:17.570Z,5.50
2019-06-25T13:45:17.565Z,4.50
2019-06-25T13:46:17.561Z,5.10
2019-06-25T13:47:17.549Z,4.20
2019-06-25T13:48:17.548Z,4.60
2019-06-25T13:49:21.369Z,3.80
2019-06-25T13:50:17.532Z,7.60
2019-06-25T13:51:17.530Z,5.50
2019-06-25T13:52:17.533Z,5.10
2019-06-25T13:53:17.528Z,4.90
2019-06-25T13:54:17.517Z,4.30
2019-06-25T13:55:17.864Z,4.10
2019-06-25T13:56:17.522Z,4.70
2019-06-25T13:57:17.509Z,7.50
2019-06-25T13:58:17.512Z,3.60
2019-06-25T13:59:17.479Z,7.40
2019-06-25T14:00:17.476Z,8.30
2019-06-25T14:01:17.470Z,3.30
2019-06-25T14:02:17.465Z,5.60
2019-06-25T14:03:17.453Z,5.50
2019-06-25T14:04:17.455Z,3.60
2019-06-25T14:05:20.484Z,4.20
2019-06-25T14:06:17.437Z,4.80
2019-06-25T14:07:17.433Z,5.30
2019-06-25T14:08:17.474Z,4.70
2019-06-25T14:09:17.418Z,5.20
2019-06-25T14:10:17.410Z,4.30
2019-06-25T14:11:17.407Z,4.80
2019-06-25T14:12:17.400Z,3.80
2019-06-25T14:13:17.411Z,4.10
2019-06-25T14:14:17.394Z,5.80
2019-06-25T14:15:17.394Z,4.50
2019-06-25T14:16:17.375Z,3.90
2019-06-25T14:17:17.373Z,4.20
2019-06-25T14:18:17.362Z,4.00
2019-06-25T14:19:17.368Z,4.80
2019-06-25T14:20:17.353Z,6.30
2019-06-25T14:21:17.449Z,5.20
2019-06-25T14:22:17.348Z,5.10
2019-06-25T14:23:17.335Z,4.00
2019-06-25T14:24:17.326Z,5.00
2019-06-25T14:25:17.321Z,4.90
2019-06-25T14:26:17.319Z,5.90
2019-06-25T14:27:17.324Z,4.40
2019-06-25T14:28:17.302Z,4.20
2019-06-25T14:29:17.301Z,4.90
2019-06-25T14:30:17.298Z,4.40
2019-06-25T14:31:17.285Z,4.80
2019-06-25T14:32:17.277Z,4.80
2019-06-25T14:33:17.283Z,3.40
2019-06-25T14:34:17.266Z,4.80
2019-06-25T14:35:17.268Z,4.10
2019-06-25T14:36:17.255Z,4.60
2019-06-25T14:37:17.247Z,4.60
2019-06-25T14:38:17.265Z,3.90
2019-06-25T14:39:17.236Z,5.70
2019-06-25T14:40:17.229Z,4.10
2019-06-25T14:41:17.222Z,5.40
2019-06-25T14:42:17.475Z,4.90
2019-06-25T14:43:17.227Z,4.20
2019-06-25T14:44:17.212Z,7.50
2019-06-25T14:45:17.209Z,4.90
2019-06-25T14:46:17.200Z,5.30
2019-06-25T14:47:17.206Z,4.80
2019-06-25T14:48:17.200Z,3.50
2019-06-25T14:49:17.178Z,4.50
2019-06-25T14:50:17.175Z,5.40
2019-06-25T14:51:17.175Z,5.20
2019-06-25T14:52:17.241Z,4.90
2019-06-25T14:53:17.156Z,6.20
2019-06-25T14:54:17.151Z,5.70
2019-06-25T14:55:17.141Z,4.00
2019-06-25T14:56:17.158Z,4.40
2019-06-25T14:57:17.132Z,6.00
2019-06-25T14:58:17.159Z,6.80
2019-06-25T14:59:17.163Z,6.90
2019-06-25T15:00:17.111Z,5.50
2019-06-25T15:01:17.125Z,4.20
2019-06-25T15:02:17.102Z,5.40
2019-06-25T15:03:17.095Z,6.50
2019-06-25T15:04:17.095Z,4.40
2019-06-25T15:05:17.084Z,3.90
2019-06-25T15:06:17.084Z,5.50
2019-06-25T15:07:17.075Z,4.70
2019-06-25T15:08:30.195Z,5.20
2019-06-25T15:09:17.072Z,5.60
2019-06-25T15:10:17.074Z,4.80
2019-06-25T15:11:17.046Z,4.20
2019-06-25T15:12:17.045Z,4.50
2019-06-25T15:13:17.056Z,6.10
2019-06-25T15:14:17.029Z,5.40
2019-06-25T15:15:31.881Z,6.00
2019-06-25T15:16:17.023Z,6.90
2019-06-25T15:17:17.022Z,5.10
2019-06-25T15:18:17.011Z,5.20
2019-06-25T15:19:16.998Z,5.70
2019-06-25T15:20:17.012Z,6.00
2019-06-25T15:21:17.067Z,4.40
2019-06-25T15:22:17.002Z,7.00
2019-06-25T15:23:16.982Z,4.20
2019-06-25T15:24:17.007Z,5.80
2019-06-25T15:25:16.985Z,9.10
2019-06-25T15:26:16.962Z,4.70
2019-06-25T15:27:16.972Z,5.00
2019-06-25T15:28:16.944Z,7.60
2019-06-25T15:29:16.944Z,7.30
2019-06-25T15:30:16.956Z,5.10
2019-06-25T15:31:16.934Z,5.00
2019-06-25T15:32:16.920Z,4.10
2019-06-25T15:33:16.917Z,5.20
2019-06-25T15:34:16.910Z,5.60
2019-06-25T15:35:16.902Z,5.20
2019-06-25T15:36:16.897Z,6.00
2019-06-25T15:37:16.890Z,4.30
2019-06-25T15:38:16.889Z,5.00
2019-06-25T15:39:16.878Z,5.30
2019-06-25T15:40:16.886Z,4.30
2019-06-25T15:41:16.864Z,4.90
2019-06-25T15:42:16.886Z,5.30
2019-06-25T15:43:16.866Z,4.90
2019-06-25T15:44:16.849Z,8.60
2019-06-25T15:45:16.864Z,4.90
2019-06-25T15:46:16.862Z,6.20
2019-06-25T15:47:16.841Z,9.70
2019-06-25T15:48:16.831Z,4.40
2019-06-25T15:49:16.829Z,4.90
2019-06-25T15:50:16.833Z,3.90
2019-06-25T15:51:16.810Z,5.40
2019-06-25T15:52:16.807Z,5.00
2019-06-25T15:53:16.814Z,4.60
2019-06-25T15:54:16.801Z,5.90
2019-06-25T15:55:16.780Z,6.80
2019-06-25T15:56:16.787Z,5.50
2019-06-25T15:57:16.788Z,4.20
2019-06-25T15:58:16.765Z,6.50
2019-06-25T15:59:16.756Z,5.20
2019-06-25T16:00:16.759Z,5.70
2019-06-25T16:01:16.743Z,4.70
2019-06-25T16:02:16.751Z,6.70
2019-06-25T16:03:16.733Z,4.00
2019-06-25T16:04:16.756Z,8.80
2019-06-25T16:05:16.719Z,5.50
2019-06-25T16:06:16.717Z,5.50
2019-06-25T16:07:16.708Z,5.80
2019-06-25T16:08:16.710Z,6.60
2019-06-25T16:09:16.701Z,5.40
2019-06-25T16:10:16.692Z,6.30
2019-06-25T16:11:16.687Z,5.20
2019-06-25T16:12:16.687Z,4.20
2019-06-25T16:13:16.675Z,4.20
2019-06-25T16:14:16.674Z,7.20
2019-06-25T16:15:16.665Z,7.80
2019-06-25T16:16:16.663Z,4.40
2019-06-25T16:17:16.657Z,9.00
2019-06-25T16:18:16.642Z,5.60
2019-06-25T16:19:16.652Z,5.80
2019-06-25T16:20:16.626Z,6.70
2019-06-25T16:21:16.731Z,6.80
2019-06-25T16:22:16.619Z,6.00
2019-06-25T16:23:16.610Z,7.00
2019-06-25T16:24:16.608Z,7.00
2019-06-25T16:25:16.596Z,9.20
2019-06-25T16:26:16.589Z,5.00
2019-06-25T16:27:16.585Z,5.00
2019-06-25T16:28:16.583Z,4.50
2019-06-25T16:29:16.585Z,7.20
2019-06-25T16:30:16.568Z,5.80
2019-06-25T16:31:16.596Z,5.40
2019-06-25T16:32:16.567Z,9.90
2019-06-25T16:33:16.548Z,6.40
2019-06-25T16:34:16.539Z,4.80
2019-06-25T16:35:16.543Z,5.40
2019-06-25T16:36:16.528Z,8.20
2019-06-25T16:37:19.842Z,5.90
2019-06-25T16:38:30.155Z,5.00
2019-06-25T16:39:19.683Z,8.80
2019-06-25T16:40:16.577Z,4.20
2019-06-25T16:41:17.963Z,5.40
2019-06-25T16:42:16.494Z,5.40
2019-06-25T16:43:16.509Z,4.40
2019-06-25T16:44:16.485Z,7.40
2019-06-25T16:45:16.473Z,4.10
2019-06-25T16:46:16.471Z,8.40
2019-06-25T16:47:16.461Z,5.80
2019-06-25T16:48:16.464Z,5.20
2019-06-25T16:49:16.448Z,5.20
2019-06-25T16:50:16.442Z,6.50
2019-06-25T16:51:16.527Z,6.00
2019-06-25T16:52:16.435Z,6.10
2019-06-25T16:53:16.445Z,4.60
2019-06-25T16:54:16.426Z,5.90
2019-06-25T16:55:16.417Z,7.10
2019-06-25T16:56:16.413Z,6.30
2019-06-25T16:57:16.417Z,7.70
2019-06-25T16:58:16.491Z,8.80
2019-06-25T16:59:16.390Z,11.60
2019-06-25T17:00:16.391Z,4.50
2019-06-25T17:01:16.374Z,7.80
2019-06-25T17:02:16.374Z,5.20
2019-06-25T17:03:16.362Z,7.50
2019-06-25T17:04:16.355Z,5.60
2019-06-25T17:05:30.549Z,6.00
2019-06-25T17:06:16.348Z,5.40
2019-06-25T17:07:16.335Z,7.00
2019-06-25T17:08:16.331Z,6.00
2019-06-25T17:09:16.342Z,5.90
2019-06-25T17:10:16.335Z,6.20
2019-06-25T17:11:16.379Z,6.00
2019-06-25T17:12:16.302Z,6.70
2019-06-25T17:13:16.302Z,8.80
2019-06-25T17:14:16.290Z,7.90
2019-06-25T17:15:16.297Z,8.00
2019-06-25T17:16:23.670Z,5.70
2019-06-25T17:17:16.307Z,7.30
2019-06-25T17:18:16.279Z,7.40
2019-06-25T17:19:16.663Z,6.90
2019-06-25T17:20:16.262Z,5.90
2019-06-25T17:21:16.260Z,4.80
2019-06-25T17:22:16.250Z,6.00
2019-06-25T17:23:16.247Z,5.50
2019-06-25T17:24:16.254Z,6.00
2019-06-25T17:25:16.220Z,8.40
2019-06-25T17:26:16.213Z,6.90
2019-06-25T17:27:16.221Z,7.10
2019-06-25T17:28:16.203Z,6.60
2019-06-25T17:29:16.195Z,8.20
2019-06-25T17:30:16.245Z,6.30
2019-06-25T17:31:16.191Z,6.20
2019-06-25T17:32:16.171Z,9.20
2019-06-25T17:33:16.194Z,6.90
2019-06-25T17:34:16.163Z,6.60
2019-06-25T17:35:16.153Z,8.40
2019-06-25T17:36:16.145Z,7.20
2019-06-25T17:37:16.143Z,7.40
2019-06-25T17:38:16.140Z,7.30
2019-06-25T17:39:16.125Z,8.50
2019-06-25T17:40:16.127Z,6.70
2019-06-25T17:41:16.120Z,5.80
2019-06-25T17:42:16.112Z,8.40
2019-06-25T17:43:16.101Z,11.90
2019-06-25T17:44:16.097Z,9.80
2019-06-25T17:45:16.084Z,7.90
2019-06-25T17:46:16.090Z,8.60
2019-06-25T17:47:16.080Z,7.30
2019-06-25T17:48:16.077Z,7.50
2019-06-25T17:49:16.063Z,8.50
2019-06-25T17:50:16.052Z,9.10
2019-06-25T17:51:16.065Z,9.80
2019-06-25T17:52:16.039Z,7.60
2019-06-25T17:53:16.030Z,8.10
2019-06-25T17:54:16.026Z,10.50
2019-06-25T17:55:16.016Z,7.30
2019-06-25T17:56:16.040Z,10.00
2019-06-25T17:57:16.012Z,7.40
2019-06-25T17:58:15.998Z,5.20
2019-06-25T17:59:16.013Z,8.20
2019-06-25T18:00:15.983Z,10.00
2019-06-25T18:01:15.987Z,7.00
2019-06-25T18:02:15.995Z,8.20
2019-06-25T18:03:15.971Z,7.30
2019-06-25T18:04:15.960Z,11.00
2019-06-25T18:05:15.968Z,11.00
2019-06-25T18:06:15.946Z,6.60
2019-06-25T18:07:15.936Z,7.40
2019-06-25T18:08:15.928Z,12.00
2019-06-25T18:09:15.929Z,8.20
2019-06-25T18:10:15.926Z,9.20
2019-06-25T18:11:15.907Z,11.30
2019-06-25T18:12:15.912Z,10.10
2019-06-25T18:13:16.045Z,8.70
2019-06-25T18:14:15.892Z,9.70
2019-06-25T18:15:15.879Z,10.70
2019-06-25T18:16:15.897Z,9.20
2019-06-25T18:17:15.871Z,8.90
2019-06-25T18:18:15.885Z,10.10
2019-06-25T18:19:15.860Z,8.60
2019-06-25T18:20:15.847Z,10.10
2019-06-25T18:21:15.847Z,12.60
2019-06-25T18:22:15.839Z,10.00
2019-06-25T18:23:15.839Z,10.20
2019-06-25T18:24:15.828Z,8.70
2019-06-25T18:25:15.814Z,8.30
2019-06-25T18:26:15.807Z,11.00
2019-06-25T18:27:15.803Z,10.30
2019-06-25T18:28:15.802Z,8.40
2019-06-25T18:29:15.799Z,11.90
2019-06-25T18:30:15.791Z,10.90
2019-06-25T18:31:15.769Z,9.90
2019-06-25T18:32:15.774Z,12.40
2019-06-25T18:33:15.765Z,7.00
2019-06-25T18:34:15.757Z,9.20
2019-06-25T18:35:15.757Z,6.90
2019-06-25T18:36:15.737Z,7.50
2019-06-25T18:37:15.727Z,9.50
2019-06-25T18:38:15.755Z,9.70
2019-06-25T18:39:15.712Z,9.70
2019-06-25T18:40:23.686Z,10.10
2019-06-25T18:41:15.721Z,11.20
2019-06-25T18:42:15.693Z,9.30
2019-06-25T18:43:15.705Z,7.60
2019-06-25T18:44:15.678Z,11.60
2019-06-25T18:45:15.676Z,10.80
2019-06-25T18:46:15.667Z,11.60
2019-06-25T18:47:15.671Z,12.20
2019-06-25T18:48:15.656Z,10.20
2019-06-25T18:49:15.644Z,13.80
2019-06-25T18:50:15.635Z,9.70
2019-06-25T18:51:15.632Z,9.60
2019-06-25T18:52:15.622Z,10.20
2019-06-25T18:53:15.614Z,7.90
2019-06-25T18:54:15.614Z,12.40
2019-06-25T18:55:15.609Z,9.10
2019-06-25T18:56:15.594Z,13.90
2019-06-25T18:57:15.590Z,11.50
2019-06-25T18:58:15.579Z,10.50
2019-06-25T18:59:15.581Z,11.20
2019-06-25T19:00:15.556Z,11.70
2019-06-25T19:01:15.552Z,12.20
2019-06-25T19:02:15.543Z,10.10
2019-06-25T19:03:15.539Z,9.20
2019-06-25T19:04:15.548Z,11.40
2019-06-25T19:05:15.532Z,10.80
2019-06-25T19:06:15.513Z,8.80
2019-06-25T19:07:15.516Z,11.60
2019-06-25T19:08:15.527Z,12.20
2019-06-25T19:09:15.510Z,9.10
2019-06-25T19:10:15.481Z,10.30
2019-06-25T19:11:15.473Z,9.10
2019-06-25T19:12:15.490Z,9.30
2019-06-25T19:13:15.456Z,9.80
2019-06-25T19:14:15.460Z,10.00
2019-06-25T19:15:15.465Z,8.90
2019-06-25T19:16:15.444Z,14.30
2019-06-25T19:17:15.437Z,14.00
2019-06-25T19:18:15.427Z,14.50
2019-06-25T19:19:15.422Z,11.20
2019-06-25T19:20:15.411Z,13.20
2019-06-25T19:21:15.410Z,11.00
2019-06-25T19:22:15.385Z,9.00
2019-06-25T19:23:15.400Z,11.70
2019-06-25T19:24:15.383Z,14.70
2019-06-25T19:25:15.361Z,9.80
2019-06-25T19:26:15.383Z,8.90
2019-06-25T19:27:15.354Z,15.50
2019-06-25T19:28:15.490Z,10.50
2019-06-25T19:29:15.345Z,9.90
2019-06-25T19:30:15.320Z,10.80
2019-06-25T19:31:15.313Z,10.50
2019-06-25T19:32:15.326Z,8.70
2019-06-25T19:33:15.302Z,12.50
2019-06-25T19:34:15.311Z,16.00
2019-06-25T19:35:15.297Z,9.10
2019-06-25T19:36:15.299Z,9.60
2019-06-25T19:37:15.276Z,7.70
2019-06-25T19:38:15.279Z,14.50
2019-06-25T19:39:15.255Z,14.40
2019-06-25T19:40:15.262Z,11.60
2019-06-25T19:41:15.243Z,9.00
2019-06-25T19:42:15.234Z,9.50
2019-06-25T19:43:15.229Z,11.30
2019-06-25T19:44:15.224Z,15.60
2019-06-25T19:45:15.225Z,9.00
2019-06-25T19:46:15.204Z,15.00
2019-06-25T19:47:15.197Z,10.80
2019-06-25T19:48:15.175Z,10.30
2019-06-25T19:49:15.191Z,12.10
2019-06-25T19:50:17.366Z,11.70
2019-06-25T19:51:15.181Z,9.70
2019-06-25T19:52:15.147Z,9.30
2019-06-25T19:53:15.160Z,10.70
2019-06-25T19:54:15.223Z,13.10
2019-06-25T19:55:15.127Z,10.90
2019-06-25T19:56:18.710Z,12.30
2019-06-25T19:57:15.181Z,9.20
2019-06-25T19:58:15.102Z,11.20
2019-06-25T19:59:15.090Z,12.20
2019-06-25T20:00:15.077Z,12.20
2019-06-25T20:01:15.067Z,10.40
2019-06-25T20:02:15.066Z,10.40
2019-06-25T20:03:15.060Z,10.40
2019-06-25T20:04:15.068Z,13.40
2019-06-25T20:05:15.055Z,11.30
2019-06-25T20:06:15.044Z,10.50
2019-06-25T20:07:15.015Z,13.60
2019-06-25T20:08:15.007Z,8.90
2019-06-25T20:09:15.031Z,13.90
2019-06-25T20:10:15.034Z,10.80
2019-06-25T20:11:14.983Z,12.30
2019-06-25T20:12:15.000Z,12.60
2019-06-25T20:13:14.963Z,10.60
2019-06-25T20:14:14.968Z,11.80
2019-06-25T20:15:14.963Z,11.40
2019-06-25T20:16:14.969Z,11.80
2019-06-25T20:17:14.933Z,11.90
2019-06-25T20:18:14.930Z,10.40
2019-06-25T20:19:14.928Z,9.80
2019-06-25T20:20:14.911Z,12.30
2019-06-25T20:21:14.913Z,9.80
2019-06-25T20:22:14.906Z,9.20
2019-06-25T20:23:15.047Z,13.20
2019-06-25T20:24:14.868Z,15.20
2019-06-25T20:25:14.876Z,11.70
2019-06-25T20:26:14.869Z,11.90
2019-06-25T20:27:14.849Z,11.60
2019-06-25T20:28:15.510Z,9.90
2019-06-25T20:29:15.133Z,12.90
2019-06-25T20:30:14.908Z,10.40
2019-06-25T20:31:14.829Z,11.50
2019-06-25T20:32:14.806Z,10.70
2019-06-25T20:33:14.788Z,11.90
2019-06-25T20:34:14.791Z,12.70
2019-06-25T20:35:14.794Z,8.70
2019-06-25T20:36:14.776Z,12.40
2019-06-25T20:37:14.784Z,11.70
2019-06-25T20:38:14.755Z,11.40
2019-06-25T20:39:14.749Z,10.70
2019-06-25T20:40:14.734Z,9.40
2019-06-25T20:41:27.594Z,12.00
2019-06-25T20:42:14.726Z,11.00
2019-06-25T20:43:14.704Z,10.00
2019-06-25T20:44:14.692Z,11.40
2019-06-25T20:45:14.682Z,12.60
2019-06-25T20:46:14.684Z,10.20
2019-06-25T20:47:14.667Z,9.90
2019-06-25T20:48:14.652Z,9.90
2019-06-25T20:49:14.651Z,10.30
2019-06-25T20:50:14.637Z,14.20
2019-06-25T20:51:14.637Z,9.50
2019-06-25T20:52:14.641Z,14.30
2019-06-25T20:53:14.609Z,10.10
2019-06-25T20:54:14.617Z,12.60
2019-06-25T20:55:14.602Z,11.90